Data for 04/08/2016

Time Sea-Level Adjusted Pressure Absolute Pressure Temperature Relative Humidity Dew Point   
(mb) (inHg) (mb) (inHg) (C) (F) (%) (C) (F)
00:05 1023 30.21 852 25.16 7.5 45.4 44 -3.9 25
00:10 1023 30.21 852 25.16 7.4 45.3 45 -3.8 25.2
00:15 1023 30.21 852 25.16 7.2 44.9 46 -3.8 25.2
00:20 1023 30.21 852 25.16 7.2 44.9 46 -3.7 25.3
00:25 1023 30.21 852 25.16 7.3 45.1 46 -3.7 25.3
00:30 1023 30.21 852 25.16 7.1 44.7 46 -3.7 25.3
00:35 1023 30.21 852 25.16 7 44.6 46 -3.8 25.1
00:40 1023 30.21 852 25.16 7 44.5 46 -3.8 25.1
00:45 1023 30.21 852 25.16 6.9 44.4 46 -4 24.8
00:50 1023 30.21 852 25.16 7 44.6 46 -3.9 24.9
00:55 1023 30.21 852 25.16 6.9 44.5 45 -4.2 24.4
01:00 1023 30.21 852 25.16 7.2 45 43 -4.5 23.8
01:05 1023 30.21 852 25.16 7.6 45.8 43 -4 24.7
01:10 1023 30.21 852 25.16 7.3 45.2 44 -4 24.9
01:15 1023 30.21 852 25.16 7 44.6 45 -4 24.8
01:20 1023 30.21 852 25.16 6.9 44.3 46 -4.1 24.6
01:25 1023 30.21 852 25.16 6.8 44.3 46 -4 24.7
01:30 1023 30.21 852 25.16 6.7 44.1 46 -4 24.7
01:35 1023 30.21 852 25.16 6.7 44.1 46 -4.1 24.6
01:40 1023 30.21 852 25.16 6.7 44 45 -4.5 24
01:45 1023 30.21 852 25.16 6.6 43.8 45 -4.4 24.1
01:50 1023 30.21 852 25.16 6.4 43.4 44 -4.9 23.1
01:55 1023 30.21 852 25.16 6.1 43 45 -4.9 23.1
02:00 1023 30.21 852 25.16 5.9 42.7 47 -4.6 23.8
02:05 1023 30.21 852 25.16 6.1 42.9 47 -4.5 23.9
02:10 1023 30.21 852 25.16 6.1 43.1 46 -4.5 23.9
02:15 1023 30.21 852 25.16 6.2 43.1 47 -4.4 24.1
02:20 1023 30.21 852 25.16 6 42.8 47 -4.3 24.3
02:25 1023 30.21 852 25.16 5.9 42.6 48 -4.1 24.5
02:30 1023 30.21 852 25.16 5.8 42.5 48 -4.4 24.1
02:35 1023 30.21 852 25.16 6.2 43.2 47 -4.3 24.2
02:40 1023 30.21 852 25.16 6.1 43 47 -4.2 24.4
02:45 1023 30.21 852 25.16 5.9 42.6 47 -4.4 24
02:50 1023 30.21 852 25.16 5.7 42.3 47 -4.8 23.4
02:55 1023 30.21 852 25.16 5.7 42.3 47 -4.7 23.6
03:00 1023 30.21 852 25.16 5.6 42.1 47 -4.7 23.5
03:05 1023 30.21 852 25.16 5.8 42.4 45 -5.1 22.7
03:10 1023 30.21 852 25.16 6.2 43.2 45 -4.9 23.3
03:15 1023 30.21 852 25.16 6 42.8 46 -4.6 23.7
03:20 1023 30.21 852 25.16 5.7 42.3 48 -4.5 23.9
03:25 1023 30.21 852 25.16 5.5 41.9 48 -4.7 23.6
03:30 1022 30.18 852 25.16 5.6 42 48 -4.6 23.6
03:35 1022 30.18 852 25.16 5.7 42.3 47 -4.7 23.5
03:40 1022 30.18 852 25.16 5.8 42.4 48 -4.5 23.8
03:45 1023 30.21 852 25.16 5.5 41.9 48 -4.6 23.6
03:50 1023 30.21 852 25.16 5.4 41.7 48 -4.6 23.7
03:55 1022 30.18 852 25.16 5.4 41.6 48 -4.8 23.3
04:00 1022 30.18 852 25.16 5.3 41.6 47 -5 22.9
04:05 1022 30.18 852 25.16 5.3 41.5 47 -5 23
04:10 1022 30.18 852 25.16 5.2 41.4 48 -5 23
04:15 1022 30.18 852 25.16 5.2 41.3 47 -5.3 22.4
04:20 1022 30.18 852 25.16 5.3 41.6 47 -5.2 22.6
04:25 1022 30.18 852 25.16 5.6 42.1 45 -5.3 22.4
04:30 1022 30.18 852 25.16 5.9 42.7 46 -4.9 23.2
04:35 1022 30.18 851 25.13 5.6 42.1 47 -4.7 23.6
04:40 1022 30.18 851 25.13 5.2 41.3 49 -4.6 23.7
04:45 1022 30.18 851 25.13 4.7 40.5 51 -4.6 23.8
04:50 1022 30.18 851 25.13 4.4 40 51 -4.9 23.2
04:55 1022 30.18 851 25.13 4.1 39.4 53 -4.7 23.6
05:00 1022 30.18 851 25.13 3.8 38.9 52 -5.1 22.9
05:05 1022 30.18 851 25.13 4.3 39.7 49 -5.5 22.1
05:10 1022 30.18 851 25.13 5.2 41.3 46 -5.6 21.8
05:15 1022 30.18 851 25.13 5.6 42 46 -5.1 22.9
05:20 1022 30.18 851 25.13 5.3 41.6 47 -5 22.9
05:25 1022 30.18 851 25.13 5.3 41.6 46 -5.3 22.4
05:30 1022 30.18 851 25.13 5.7 42.3 45 -5.2 22.6
05:35 1022 30.18 851 25.13 5.6 42 47 -5 23
05:40 1022 30.18 851 25.13 5.2 41.3 48 -5 23
05:45 1022 30.18 851 25.13 5 41.1 47 -5.5 22.2
05:50 1022 30.18 851 25.13 5.3 41.5 45 -5.6 21.9
05:55 1022 30.18 851 25.13 5.5 41.9 45 -5.4 22.3
06:00 1022 30.18 851 25.13 5.1 41.2 46 -5.6 21.9
06:05 1022 30.18 851 25.13 4.8 40.6 45 -6.1 21
06:10 1022 30.18 851 25.13 5.1 41.3 46 -5.4 22.2
06:15 1022 30.18 851 25.13 4.7 40.5 48 -5.4 22.3
06:20 1022 30.18 851 25.13 4.9 40.8 47 -5.5 22
06:25 1022 30.18 851 25.13 5.4 41.8 45 -5.5 22.1
06:30 1022 30.18 851 25.13 5.8 42.5 44 -5.6 21.9
06:35 1022 30.18 851 25.13 6.2 43.1 42 -5.8 21.6
06:40 1022 30.18 851 25.13 6.4 43.5 42 -5.4 22.2
06:45 1022 30.18 851 25.13 6.3 43.3 43 -5.3 22.5
06:50 1022 30.18 851 25.13 6.2 43.1 43 -5.4 22.2
06:55 1022 30.18 851 25.13 6.2 43.2 44 -5.3 22.5
07:00 1022 30.18 851 25.13 6.4 43.6 43 -5.1 22.8
07:05 1022 30.18 851 25.13 6.9 44.3 43 -5 23.1
07:10 1022 30.18 851 25.13 7 44.5 42 -5 22.9
07:15 1022 30.18 851 25.13 7.2 44.9 41 -5.1 22.7
07:20 1022 30.18 851 25.13 7.8 46.1 40 -5.1 22.9
07:25 1022 30.18 851 25.13 7.9 46.1 40 -5 22.9
07:30 1022 30.18 851 25.13 7.9 46.3 40 -4.9 23.3
07:35 1022 30.18 851 25.13 8.1 46.6 39 -4.8 23.3
07:40 1022 30.18 851 25.13 8.6 47.6 40 -4.3 24.2
07:45 1022 30.18 851 25.13 9 48.2 38 -4.6 23.7
07:50 1022 30.18 851 25.13 9.3 48.7 38 -4.4 24.1
07:55 1022 30.18 851 25.13 9.5 49.1 37 -4.6 23.7
08:00 1022 30.18 851 25.13 9.8 49.7 36 -4.4 24.2
08:05 1022 30.18 851 25.13 10 50 36 -4.4 24.1
08:10 1022 30.18 851 25.13 9.9 49.9 34 -5.1 22.7
08:15 1022 30.18 851 25.13 10.1 50.2 35 -4.6 23.8
08:20 1022 30.18 851 25.13 10.4 50.7 34 -4.9 23.2
08:25 1022 30.18 851 25.13 10.8 51.4 35 -4.1 24.6
08:30 1022 30.18 851 25.13 11 51.8 34 -4 24.7
08:35 1022 30.18 851 25.13 11.3 52.3 33 -4.2 24.5
08:40 1022 30.18 851 25.13 11.7 53 32 -4.6 23.7
08:45 1022 30.18 851 25.13 12.7 54.8 30 -4.5 24
08:50 1022 30.18 851 25.13 12.8 55.1 29 -4.5 23.9
08:55 1022 30.18 851 25.13 13 55.4 29 -4.8 23.4
09:00 1022 30.18 851 25.13 13.5 56.3 28 -4.5 23.9
09:05 1021 30.15 851 25.13 13.6 56.5 28 -4.5 23.9
09:10 1021 30.15 851 25.13 14 57.2 27 -4.5 23.8
09:15 1021 30.15 851 25.13 14.6 58.2 26 -4.6 23.7
09:20 1021 30.15 851 25.13 14.7 58.5 26 -4.7 23.5
09:25 1021 30.15 850 25.1 15.1 59.1 26 -4.4 24.1
09:30 1021 30.15 850 25.1 14.1 57.4 28 -4 24.9
09:35 1021 30.15 850 25.1 14.1 57.3 26 -5 22.9
09:40 1021 30.15 850 25.1 14.6 58.4 26 -4.6 23.7
09:45 1021 30.15 850 25.1 15.1 59.1 25 -4.5 24
09:50 1021 30.15 850 25.1 15.5 60 26 -3.8 25.2
09:55 1021 30.15 850 25.1 15.2 59.4 26 -3.9 24.9
10:00 1021 30.15 850 25.1 15.5 59.9 26 -3.9 24.9
10:05 1021 30.15 850 25.1 15.8 60.4 27 -3.1 26.4
10:10 1021 30.15 850 25.1 15.7 60.2 26 -3.7 25.4
10:15 1021 30.15 850 25.1 16.1 61 26 -3.2 26.3
10:20 1021 30.15 850 25.1 16.1 60.9 26 -3.4 25.8
10:25 1021 30.15 850 25.1 16.5 61.7 25 -3.5 25.7
10:30 1021 30.15 850 25.1 16.9 62.3 25 -3.1 26.4
10:35 1021 30.15 850 25.1 17 62.6 26 -2.7 27.2
10:40 1021 30.15 850 25.1 16.5 61.7 27 -2.6 27.3
10:45 1021 30.15 850 25.1 16.3 61.3 28 -2.3 27.8
10:50 1021 30.15 850 25.1 16.7 62.1 25 -3 26.5
10:55 1021 30.15 850 25.1 16.2 61.2 26 -3 26.6
11:00 1020 30.12 850 25.1 17.1 62.8 25 -3.1 26.4
11:05 1020 30.12 850 25.1 17.7 63.9 26 -2 28.4
11:10 1020 30.12 850 25.1 17.9 64.1 25 -2.5 27.4
11:15 1020 30.12 849 25.07 17.9 64.1 26 -2 28.5
11:20 1020 30.12 849 25.07 17.8 64 24 -2.9 26.8
11:25 1020 30.12 849 25.07 18.6 65.5 24 -2.4 27.7
11:30 1020 30.12 849 25.07 18.9 66 22 -3.2 26.3
11:35 1020 30.12 849 25.07 18.8 65.8 23 -2.6 27.4
11:40 1020 30.12 849 25.07 17.6 63.6 23 -3.5 25.6
11:45 1020 30.12 849 25.07 18.6 65.5 22 -3.2 26.2
11:50 1020 30.12 849 25.07 18.8 65.8 22 -3.1 26.5
11:55 1020 30.12 849 25.07 18.4 65.1 21 -4.2 24.4
12:00 1020 30.12 849 25.07 18.3 65 20 -5 23
12:05 1019 30.09 849 25.07 18.9 66 19 -5 23
12:10 1019 30.09 848 25.04 20 68 18 -5 23
12:15 1019 30.09 848 25.04 19.7 67.5 16 -7.1 19.2
12:20 1019 30.09 848 25.04 20 67.9 14 -7.8 17.9
12:25 1019 30.09 848 25.04 20.8 69.4 13 -8.9 16
12:30 1019 30.09 848 25.04 19.9 67.8 17 -6 21.2
12:35 1019 30.09 848 25.04 20.3 68.6 14 -7.6 18.3
12:40 1019 30.09 848 25.04 19.6 67.2 15 -7.8 18
12:45 1019 30.09 848 25.04 20.7 69.2 13 -8.1 17.4
12:50 1019 30.09 848 25.04 20.1 68.2 15 -7 19.4
12:55 1019 30.09 848 25.04 20.9 69.7 14 -7.7 18.2
13:00 1018 30.06 848 25.04 21.3 70.3 13 -7.7 18.1
13:05 1018 30.06 848 25.04 21 69.7 13 -8.3 17.1
13:10 1018 30.06 847 25.01 21.3 70.3 13 -8.4 16.9
13:15 1018 30.06 847 25.01 21.7 71 11 -9.5 14.9
13:20 1018 30.06 847 25.01 21.3 70.3 13 -8.2 17.3
13:25 1018 30.06 847 25.01 21 69.7 12 -9.4 15.1
13:30 1018 30.06 847 25.01 20.7 69.3 11 -10.2 13.7
13:35 1018 30.06 847 25.01 21.4 70.6 12 -8.8 16.1
13:40 1018 30.06 847 25.01 21.6 70.8 11 -9.7 14.5
13:45 1018 30.06 847 25.01 22 71.7 11 -9.4 15.1
13:50 1017 30.03 847 25.01 21.8 71.2 12 -8.8 16.1
13:55 1017 30.03 847 25.01 21.6 70.8 12 -9.1 15.6
14:00 1017 30.03 847 25.01 22.1 71.7 12 -8.9 16
14:05 1017 30.03 846 24.98 21.9 71.4 11 -9.7 14.6
14:10 1017 30.03 846 24.98 21.1 69.9 11 -10.3 13.5
14:15 1017 30.03 846 24.98 20.3 68.6 12 -10.4 13.3
14:20 1017 30.03 846 24.98 21.2 70.2 12 -9.4 15.1
14:25 1017 30.03 846 24.98 22.5 72.4 11 -9.8 14.4
14:30 1017 30.03 846 24.98 22.6 72.6 10 -10.6 12.9
14:35 1017 30.03 846 24.98 22.8 73.1 10 -10 14.1
14:40 1017 30.03 846 24.98 22.9 73.3 11 -9.5 14.8
14:45 1017 30.03 846 24.98 22.9 73.2 10 -10 13.9
14:50 1016 30 846 24.98 23.6 74.5 11 -8.4 16.8
14:55 1016 30 846 24.98 23.2 73.7 10 -9.8 14.3
15:00 1016 30 846 24.98 23 73.4 10 -9.8 14.3
15:05 1016 30 846 24.98 22.8 73 10 -10.5 13.1
15:10 1016 30 845 24.95 22.9 73.1 10 -10.5 13.1
15:15 1016 30 845 24.95 22.5 72.4 10 -10 14
15:20 1016 30 845 24.95 22.6 72.6 9 -11.3 11.6
15:25 1016 30 845 24.95 22.6 72.6 10 -10.6 12.9
15:30 1016 30 845 24.95 23 73.5 10 -9.9 14.2
15:35 1016 30 845 24.95 22.9 73.2 10 -9.9 14.1
15:40 1016 30 845 24.95 23 73.4 10 -10.3 13.5
15:45 1016 30 845 24.95 23.5 74.3 10 -10.3 13.5
15:50 1016 30 845 24.95 23 73.4 9 -11.4 11.5
15:55 1016 30 845 24.95 22.3 72.2 10 -11 12.1
16:00 1016 30 845 24.95 22.9 73.3 10 -10.3 13.5
16:05 1015 29.97 845 24.95 23.5 74.2 8 -12.2 10.1
16:10 1015 29.97 845 24.95 24 75.1 9 -10.9 12.3
16:15 1015 29.97 845 24.95 23.9 74.9 10 -9.9 14.2
16:20 1015 29.97 844 24.92 23.5 74.4 10 -10.3 13.5
16:25 1015 29.97 844 24.92 22.7 72.8 9 -11.3 11.7
16:30 1015 29.97 844 24.92 22.1 71.7 10 -11.3 11.6
16:35 1015 29.97 844 24.92 22.5 72.5 10 -10.9 12.3
16:40 1015 29.97 844 24.92 22.9 73.1 9 -11.2 11.9
16:45 1015 29.97 844 24.92 23.2 73.8 10 -10.4 13.2
16:50 1015 29.97 844 24.92 23.2 73.7 9 -10.9 12.4
16:55 1015 29.97 844 24.92 22.8 73.1 10 -10.8 12.5
17:00 1015 29.97 844 24.92 22.9 73.2 9 -11.2 11.8
17:05 1015 29.97 844 24.92 22.3 72.1 10 -11 12.3
17:10 1014 29.94 844 24.92 22 71.6 10 -10.9 12.3
17:15 1014 29.94 844 24.92 21.6 70.9 10 -10.9 12.3
17:20 1014 29.94 844 24.92 21.5 70.6 10 -11.1 12
17:25 1014 29.94 844 24.92 21.6 70.8 11 -10.6 12.9
17:30 1014 29.94 843 24.89 21.3 70.4 11 -10.4 13.2
17:35 1014 29.94 843 24.89 21.3 70.4 11 -10.6 12.9
17:40 1014 29.94 843 24.89 20.9 69.6 11 -10.6 12.8
17:45 1014 29.94 843 24.89 20.5 68.9 11 -11.2 11.9
17:50 1014 29.94 843 24.89 20.6 69 11 -10.6 12.8
17:55 1014 29.94 843 24.89 20.6 69.1 11 -10.7 12.7
18:00 1014 29.94 843 24.89 20.6 69.1 12 -10.1 13.8
18:05 1014 29.94 843 24.89 20.4 68.7 12 -9.8 14.3
18:10 1014 29.94 843 24.89 20.4 68.7 11 -10.6 12.9
18:15 1014 29.94 843 24.89 20.3 68.5 12 -10.4 13.3
18:20 1014 29.94 843 24.89 20.2 68.3 12 -10.2 13.7
18:25 1014 29.94 843 24.89 20.1 68.2 11 -10.7 12.8
18:30 1014 29.94 843 24.89 20.1 68.1 12 -9.9 14.1
18:35 1013 29.91 843 24.89 20 67.9 11 -10.9 12.4
18:40 1013 29.91 843 24.89 19.9 67.8 12 -10.8 12.6
18:45 1013 29.91 843 24.89 19.7 67.4 12 -10.7 12.7
18:50 1013 29.91 843 24.89 19.5 67 12 -10.8 12.6
18:55 1013 29.91 843 24.89 19.2 66.6 12 -10.7 12.8
19:00 1013 29.91 843 24.89 19 66.1 12 -10.8 12.6
19:05 1013 29.91 843 24.89 18.8 65.9 13 -10.3 13.5
19:10 1013 29.91 842 24.86 18.2 64.7 22 -3.8 25.2
19:15 1013 29.91 842 24.86 16.5 61.8 25 -3.6 25.5
19:20 1013 29.91 842 24.86 15.8 60.4 25 -4.1 24.7
19:25 1013 29.91 842 24.86 15.4 59.8 27 -3.6 25.5
19:30 1013 29.91 842 24.86 15.1 59.2 26 -4 24.8
19:35 1013 29.91 842 24.86 14.8 58.6 29 -3.2 26.3
19:40 1013 29.91 842 24.86 14.2 57.6 28 -4.1 24.6
19:45 1013 29.91 842 24.86 13.9 57 27 -4.6 23.7
19:50 1013 29.91 842 24.86 13.7 56.7 28 -4.4 24.1
19:55 1013 29.91 843 24.89 13.3 56 29 -4.4 24.1
20:00 1013 29.91 843 24.89 13 55.4 30 -4.3 24.2
20:05 1013 29.91 843 24.89 12.6 54.7 30 -4.3 24.3
20:10 1013 29.91 843 24.89 12.3 54.1 30 -4.8 23.4
20:15 1013 29.91 843 24.89 12.1 53.7 30 -4.9 23.2
20:20 1013 29.91 842 24.86 12.1 53.8 30 -4.9 23.2
20:25 1013 29.91 842 24.86 12.1 53.8 30 -5.1 22.8
20:30 1013 29.91 842 24.86 12.4 54.3 28 -5.5 22.1
20:35 1013 29.91 842 24.86 12.5 54.6 28 -5.4 22.2
20:40 1013 29.91 842 24.86 12.4 54.2 29 -5.3 22.4
20:45 1013 29.91 842 24.86 12 53.6 29 -5.4 22.3
20:50 1013 29.91 842 24.86 11.9 53.4 29 -5.5 22.2
20:55 1013 29.91 842 24.86 11.6 53 29 -5.6 21.9
21:00 1013 29.91 842 24.86 11.6 52.9 29 -5.8 21.6
21:05 1013 29.91 842 24.86 11.7 53 29 -5.8 21.5
21:10 1013 29.91 842 24.86 11.6 52.8 29 -5.8 21.5
21:15 1013 29.91 842 24.86 11.5 52.7 29 -5.8 21.6
21:20 1013 29.91 842 24.86 11.5 52.7 29 -6 21.1
21:25 1013 29.91 842 24.86 11.5 52.7 30 -5.5 22.1
21:30 1013 29.91 842 24.86 11.2 52.1 30 -5.7 21.8
21:35 1013 29.91 842 24.86 10.9 51.5 31 -5.5 22.2
21:40 1013 29.91 842 24.86 10.7 51.3 30 -6.2 20.9
21:45 1013 29.91 842 24.86 10.9 51.6 30 -6.1 21
21:50 1013 29.91 842 24.86 10.8 51.4 30 -5.9 21.4
21:55 1013 29.91 842 24.86 10.7 51.2 30 -6.3 20.7
22:00 1013 29.91 842 24.86 10.8 51.5 30 -6.3 20.7
22:05 1013 29.91 842 24.86 10.8 51.4 29 -6.4 20.4
22:10 1013 29.91 842 24.86 10.7 51.3 29 -6.5 20.3
22:15 1012 29.88 842 24.86 10.6 51.1 28 -7.1 19.1
22:20 1012 29.88 842 24.86 10.6 51 28 -7.1 19.2
22:25 1012 29.88 842 24.86 10.6 51 28 -7.1 19.2
22:30 1012 29.88 842 24.86 10.7 51.3 28 -7.1 19.2
22:35 1012 29.88 841 24.83 10.7 51.2 27 -7.6 18.3
22:40 1012 29.88 841 24.83 10.7 51.2 26 -8.1 17.5
22:45 1012 29.88 841 24.83 10.9 51.6 26 -8.1 17.5
22:50 1012 29.88 841 24.83 10.9 51.7 25 -8.5 16.7
22:55 1012 29.88 841 24.83 11 51.9 26 -7.5 18.4
23:00 1012 29.88 841 24.83 10.7 51.3 25 -8.4 16.9
23:05 1012 29.88 841 24.83 10.9 51.6 25 -8.2 17.3
23:10 1012 29.88 841 24.83 10.9 51.6 25 -8.3 17
23:15 1012 29.88 841 24.83 10.8 51.5 26 -7.9 17.7
23:20 1012 29.88 841 24.83 10.4 50.7 27 -7.9 17.8
23:25 1012 29.88 841 24.83 10.3 50.5 27 -8.1 17.4
23:30 1012 29.88 841 24.83 10.2 50.4 27 -8.1 17.4
23:35 1012 29.88 841 24.83 10.2 50.4 27 -8 17.5
23:40 1012 29.88 841 24.83 10.2 50.3 27 -8 17.7
23:45 1012 29.88 841 24.83 10.1 50.1 27 -8 17.7
23:50 1012 29.88 841 24.83 10.1 50.1 28 -7.8 18
23:55 1012 29.88 841 24.83 9.9 49.9 27 -8.1 17.4
24:00 1012 29.88 841 24.83 10 50 27 -8.3 17.1